Startpagina
METAR-TAF:

METAR-TAF

Vliegvelden :

Cardiff Airport

Cardiff, Wales

breedte: 51-24N, lengte: 003-21W, hoogte: 67 m

Actueel weer

Dit bericht is 19 minuten geleden gemaakt, om 02:50 UTC
Wind 4 kt uit het noorden
Temperatuur 6°C
Vochtigheid 93%
Druk 1025 hPa
Zicht: 5000 m
Geheel bewolkt op 600 ft
nevel

METAR: EGFF 240250Z AUTO 36004KT 5000 BR OVC006 06/05 Q1025

Tijdstip: 03:09 (03:09 UTC)

Verwachting

Dit bericht is 4 uur en het 7 minuten geleden gemaakt, om 23:02 UTC
Verwachting geldig van 24 om 00 UTC tot 24 om 24 UTC
Wind 4 kt uit het oostnoordoosten
Zicht: 6000 m
Verspreide wolken op 400 ft
Gebroken wolken op 1500 ft
Tijdelijke
van 24 om 00 UTC tot 24 om 24 UTC
Zicht: 3000 m
Gebroken wolken op 1000 ft
nevel
Kans 30% :
Tijdelijke
van 24 om 00 UTC tot 24 om 24 UTC
Zicht 10 km of meer
Gebroken wolken op 400 ft

TAF: EGFF 232302Z 2400/2424 06004KT 6000 SCT004 BKN015 TEMPO 2400/2424 3000 BR BKN010 PROB30 TEMPO 2400/2424 9999 BKN004

Waarnemingen en weersverwachtingen van meer dan 4000 vliegvelden (METAR en TAF).

De beschikbare stations zijn de gele en rode punten op de kaart.

Ga met uw muis naar het station om de naam te zien.

Klik dan om waarnemingen en weersverwachtingen te zien.

kaart wijzigen: klik op de groene knoppen met een zwart kruis om in te zoomen, op de groene knop met een streepje om uit te zoomen of op de groene pijlen voor aangrenzende kaarten.


METAR-TAF: